Time;durP1;ratioP1;P1;durP2;ratioP2;P2;SDS_P1;SDS_P2;PMS_P1;PMS_P2;Temp;Humidity;BMP_temperature;BMP_pressure;BME280_temperature;BME280_humidity;BME280_pressure;Samples;Min_cycle;Max_cycle;Signal;HPM_P1;HPM_P2
2023/08/03 00:00:50;;;;;;;23.55;3.60;;;17.30;99.90;;;;;;3993291;29;20187;-90
2023/08/03 00:02:51;;;;;;;20.90;3.80;;;17.30;99.90;;;;;;4008480;29;20274;-90
2023/08/03 00:04:52;;;;;;;22.10;3.67;;;17.30;99.90;;;;;;3993234;29;20188;-90
2023/08/03 00:06:53;;;;;;;21.23;3.47;;;17.40;99.90;;;;;;4008472;29;20569;-92
2023/08/03 00:08:54;;;;;;;21.38;3.67;;;17.40;99.90;;;;;;3993210;29;20188;-92
2023/08/03 00:10:55;;;;;;;25.38;3.35;;;17.50;99.90;;;;;;3993634;29;20195;-92
2023/08/03 00:12:56;;;;;;;17.08;3.10;;;17.40;99.90;;;;;;3993184;29;20184;-92
2023/08/03 00:14:56;;;;;;;23.30;3.10;;;17.40;99.90;;;;;;4008262;29;20191;-90
2023/08/03 00:16:57;;;;;;;25.90;3.42;;;17.50;99.90;;;;;;3993280;29;20191;-90
2023/08/03 00:18:58;;;;;;;29.30;3.90;;;17.40;99.90;;;;;;3993249;29;20748;-89
2023/08/03 00:20:59;;;;;;;28.25;4.10;;;17.40;99.90;;;;;;3993215;29;20282;-90
2023/08/03 00:22:59;;;;;;;19.02;3.40;;;17.20;99.90;;;;;;4008330;29;20195;-89
2023/08/03 00:25:00;;;;;;;24.33;3.08;;;17.30;99.90;;;;;;4008168;29;20199;-94
2023/08/03 00:27:01;;;;;;;17.98;3.63;;;17.30;99.90;;;;;;3993316;29;20222;-91
2023/08/03 00:29:02;;;;;;;23.00;3.55;;;17.40;99.90;;;;;;3993246;29;20376;-89
2023/08/03 00:31:03;;;;;;;30.70;3.97;;;17.20;99.90;;;;;;4008114;29;20653;-93
2023/08/03 00:33:04;;;;;;;30.17;3.92;;;17.20;99.90;;;;;;3993132;29;20275;-89
2023/08/03 00:35:05;;;;;;;27.00;3.88;;;17.40;99.90;;;;;;4008020;29;20191;-90
2023/08/03 00:37:06;;;;;;;25.63;3.90;;;17.30;99.90;;;;;;3992868;29;20272;-94
2023/08/03 00:39:07;;;;;;;26.70;3.65;;;17.30;99.90;;;;;;3992960;29;20706;-89
2023/08/03 00:41:07;;;;;;;23.83;3.60;;;17.50;99.90;;;;;;4007941;29;20261;-94
2023/08/03 00:43:08;;;;;;;28.58;3.60;;;17.50;99.90;;;;;;4008381;29;20194;-89
2023/08/03 00:45:13;;;;;;;25.27;3.42;;;17.50;99.90;;;;;;4008381;29;20195;-89
2023/08/03 00:47:13;;;;;;;25.52;4.78;;;17.50;99.90;;;;;;4007919;29;20222;-95
2023/08/03 00:49:15;;;;;;;22.48;3.17;;;17.40;99.90;;;;;;4007918;29;20669;-89
2023/08/03 00:51:15;;;;;;;26.65;3.38;;;17.50;99.90;;;;;;4023211;29;20285;-89
2023/08/03 00:53:16;;;;;;;17.50;2.95;;;17.40;99.90;;;;;;4007756;29;20191;-89
2023/08/03 00:55:17;;;;;;;24.75;3.38;;;17.50;99.90;;;;;;4007957;29;20187;-91
2023/08/03 00:57:18;;;;;;;22.27;3.13;;;17.50;99.90;;;;;;4007740;29;20191;-90
2023/08/03 00:59:19;;;;;;;21.02;3.38;;;17.60;99.90;;;;;;4007538;29;20614;-90
2023/08/03 01:01:20;;;;;;;23.75;3.58;;;17.60;99.90;;;;;;4007699;29;20187;-90
2023/08/03 01:03:21;;;;;;;28.80;3.70;;;17.70;99.90;;;;;;4007754;29;20355;-90
2023/08/03 01:05:22;;;;;;;23.52;3.78;;;17.60;99.90;;;;;;4007751;29;20183;-90
2023/08/03 01:07:23;;;;;;;22.20;2.60;;;17.70;99.90;;;;;;3992789;29;20235;-89
2023/08/03 01:09:24;;;;;;;26.42;3.85;;;17.50;99.90;;;;;;3992579;29;20320;-93
2023/08/03 01:11:25;;;;;;;27.27;3.42;;;17.40;99.90;;;;;;3992648;29;20192;-90
2023/08/03 01:13:26;;;;;;;27.95;3.60;;;17.30;99.90;;;;;;4007475;29;20557;-90
2023/08/03 01:15:28;;;;;;;18.33;2.78;;;17.40;99.90;;;;;;4007526;29;20197;-94
2023/08/03 01:17:28;;;;;;;23.42;3.78;;;17.40;99.90;;;;;;4007578;29;20568;-90
2023/08/03 01:19:29;;;;;;;25.17;3.42;;;17.40;99.90;;;;;;4007400;29;20301;-93
2023/08/03 01:21:31;;;;;;;22.27;3.25;;;17.40;99.90;;;;;;3992518;29;20179;-90
2023/08/03 01:23:33;;;;;;;21.10;3.45;;;17.40;99.90;;;;;;3992528;29;20286;-90
2023/08/03 01:25:34;;;;;;;20.48;2.88;;;17.50;99.90;;;;;;3992472;29;20195;-91
2023/08/03 01:27:35;;;;;;;20.92;3.70;;;17.60;99.90;;;;;;4007245;29;20645;-93
2023/08/03 01:29:35;;;;;;;21.73;3.10;;;17.70;99.90;;;;;;3992205;29;20203;-94
2023/08/03 01:31:36;;;;;;;20.05;2.75;;;17.50;99.90;;;;;;4007529;29;20197;-90
2023/08/03 01:33:37;;;;;;;22.63;3.72;;;17.60;99.90;;;;;;3992357;29;20184;-91
2023/08/03 01:35:39;;;;;;;19.98;3.22;;;17.60;99.90;;;;;;4007117;29;20602;-92
2023/08/03 01:37:39;;;;;;;13.80;2.72;;;17.60;99.90;;;;;;4022603;29;20190;-90
2023/08/03 01:39:47;;;;;;;23.67;3.40;;;17.60;99.90;;;;;;4007181;29;20297;-95
2023/08/03 01:41:48;;;;;;;20.77;3.13;;;17.50;99.90;;;;;;4007276;29;20197;-90
2023/08/03 01:44:17;;;;;;;24.75;3.53;;;17.50;99.90;;;;;;4007496;29;20187;-90
2023/08/03 01:46:18;;;;;;;18.00;3.28;;;17.60;99.90;;;;;;3992326;29;20653;-91
2023/08/03 01:48:20;;;;;;;17.00;2.85;;;17.50;99.90;;;;;;4006593;29;20263;-90
2023/08/03 01:50:21;;;;;;;24.15;3.35;;;17.60;99.90;;;;;;3992283;29;20211;-91
2023/08/03 01:52:22;;;;;;;15.63;2.80;;;17.70;99.90;;;;;;4007289;29;20197;-94
2023/08/03 01:54:22;;;;;;;17.83;3.08;;;17.70;99.90;;;;;;4022522;29;20186;-90
2023/08/03 01:56:23;;;;;;;15.52;2.45;;;17.60;99.90;;;;;;4006891;29;20281;-91
2023/08/03 01:58:24;;;;;;;16.83;3.05;;;17.60;99.90;;;;;;3991862;29;20184;-94
2023/08/03 02:00:25;;;;;;;17.75;2.90;;;17.50;99.90;;;;;;4006725;29;20296;-94
2023/08/03 02:02:26;;;;;;;19.75;3.22;;;17.40;99.90;;;;;;4007000;29;20186;-94
2023/08/03 02:04:27;;;;;;;13.93;2.90;;;17.50;99.90;;;;;;4022342;29;20182;-90
2023/08/03 02:06:28;;;;;;;17.95;2.78;;;17.40;99.90;;;;;;3991962;29;20180;-93
2023/08/03 02:08:28;;;;;;;22.48;3.33;;;17.50;99.90;;;;;;3991976;29;20226;-89
2023/08/03 02:10:29;;;;;;;17.63;2.90;;;17.60;99.90;;;;;;4007022;29;20243;-90
2023/08/03 02:12:30;;;;;;;20.88;3.00;;;17.50;99.90;;;;;;4006851;29;20194;-90
2023/08/03 02:14:31;;;;;;;18.17;2.78;;;17.70;99.90;;;;;;3991966;29;20186;-90
2023/08/03 02:16:32;;;;;;;21.50;3.20;;;17.60;99.90;;;;;;4006844;29;20187;-93
2023/08/03 02:18:33;;;;;;;20.98;3.15;;;17.70;99.90;;;;;;4006820;29;20214;-89
2023/08/03 02:20:33;;;;;;;20.63;3.03;;;17.70;99.90;;;;;;4006720;29;20222;-91
2023/08/03 02:22:34;;;;;;;15.68;2.83;;;17.60;99.90;;;;;;3991922;29;20261;-90
2023/08/03 02:24:35;;;;;;;17.88;2.88;;;17.50;99.90;;;;;;4006567;29;20222;-91
2023/08/03 02:26:36;;;;;;;24.45;3.78;;;17.50;99.90;;;;;;3991736;29;20191;-90
2023/08/03 02:28:37;;;;;;;17.05;3.20;;;17.40;99.90;;;;;;4006793;29;20633;-90
2023/08/03 02:30:39;;;;;;;20.02;2.88;;;17.50;99.90;;;;;;4006543;29;20633;-90
2023/08/03 02:32:42;;;;;;;21.42;2.60;;;17.30;99.90;;;;;;4006879;29;20626;-89
2023/08/03 02:34:45;;;;;;;23.55;3.72;;;17.40;99.90;;;;;;3991990;29;20272;-90
2023/08/03 02:36:46;;;;;;;15.98;2.53;;;17.40;99.90;;;;;;4006541;29;20222;-90
2023/08/03 02:38:46;;;;;;;21.92;3.15;;;17.50;99.90;;;;;;3991436;29;20179;-90
2023/08/03 02:40:49;;;;;;;16.63;2.40;;;17.50;99.90;;;;;;3991835;29;20222;-94
2023/08/03 02:42:50;;;;;;;17.75;2.50;;;17.60;99.90;;;;;;3991707;29;20195;-90
2023/08/03 02:44:51;;;;;;;18.42;2.67;;;17.50;99.90;;;;;;3991581;29;20245;-93
2023/08/03 02:46:52;;;;;;;19.00;2.30;;;17.50;99.90;;;;;;4006491;29;20222;-92
2023/08/03 02:48:54;;;;;;;19.33;2.90;;;17.50;99.90;;;;;;4006364;29;20198;-94
2023/08/03 02:50:58;;;;;;;17.58;2.80;;;17.70;99.90;;;;;;3992155;29;20184;-92
2023/08/03 02:53:00;;;;;;;15.68;2.45;;;17.70;99.90;;;;;;4021799;29;20194;-94
2023/08/03 02:55:02;;;;;;;16.48;2.60;;;17.70;99.90;;;;;;3991611;29;20207;-95
2023/08/03 02:57:03;;;;;;;16.70;2.20;;;17.80;99.90;;;;;;4021955;29;20186;-94
2023/08/03 02:59:03;;;;;;;14.88;2.67;;;17.80;99.90;;;;;;4007483;29;20214;-91
2023/08/03 03:01:14;;;;;;;17.40;2.45;;;17.90;99.90;;;;;;4010704;29;20202;-90
2023/08/03 03:03:15;;;;;;;14.20;2.42;;;17.60;99.90;;;;;;4009345;29;20222;-93
2023/08/03 03:05:16;;;;;;;16.38;2.53;;;17.50;99.90;;;;;;4009360;29;20198;-90
2023/08/03 03:07:20;;;;;;;20.88;2.58;;;17.60;99.90;;;;;;4009306;29;20237;-90
2023/08/03 03:09:25;;;;;;;21.05;2.80;;;17.50;99.90;;;;;;4009833;29;20641;-88
2023/08/03 03:11:28;;;;;;;16.23;2.63;;;17.40;99.90;;;;;;4009694;29;20601;-91
2023/08/03 03:13:28;;;;;;;12.73;2.38;;;17.50;99.90;;;;;;3993772;29;20200;-90
2023/08/03 03:15:29;;;;;;;13.25;1.90;;;17.40;99.90;;;;;;4009290;29;20175;-90
2023/08/03 03:17:30;;;;;;;10.95;2.20;;;17.50;99.90;;;;;;3994310;29;20184;-90
2023/08/03 03:19:34;;;;;;;10.85;2.00;;;17.50;99.90;;;;;;4009062;29;20218;-95
2023/08/03 03:21:39;;;;;;;16.90;2.42;;;17.50;99.90;;;;;;3994632;29;20192;-90
2023/08/03 03:23:39;;;;;;;15.23;2.50;;;17.60;99.90;;;;;;4009337;29;20193;-90
2023/08/03 03:25:40;;;;;;;12.48;2.42;;;17.50;99.90;;;;;;3994231;29;20203;-90
2023/08/03 03:27:41;;;;;;;11.35;2.72;;;17.60;99.90;;;;;;4009034;29;20214;-90
2023/08/03 03:29:43;;;;;;;17.17;2.65;;;17.60;99.90;;;;;;4024272;29;20214;-94
2023/08/03 03:31:44;;;;;;;17.17;2.65;;;17.90;99.90;;;;;;3993891;29;20180;-95
2023/08/03 03:33:45;;;;;;;15.65;2.88;;;17.90;99.90;;;;;;3993836;29;20191;-90
2023/08/03 03:35:49;;;;;;;17.77;2.55;;;17.70;99.90;;;;;;4024284;29;20230;-91
2023/08/03 03:37:52;;;;;;;12.57;2.20;;;17.70;99.90;;;;;;4024087;29;20186;-94
2023/08/03 03:39:57;;;;;;;13.52;3.10;;;17.80;99.90;;;;;;3994015;29;20207;-90
2023/08/03 03:42:06;;;;;;;21.80;3.03;;;17.70;99.90;;;;;;4023420;29;20197;-90
2023/08/03 03:44:08;;;;;;;14.05;2.60;;;17.70;99.90;;;;;;3993451;29;20270;-94
2023/08/03 03:46:09;;;;;;;20.33;3.33;;;17.70;99.90;;;;;;4023987;29;20191;-93
2023/08/03 03:48:11;;;;;;;18.27;2.33;;;17.60;99.90;;;;;;3993747;29;20715;-90
2023/08/03 03:50:12;;;;;;;16.08;2.38;;;17.50;99.90;;;;;;4008861;29;20217;-95
2023/08/03 03:52:12;;;;;;;13.88;2.22;;;17.50;99.90;;;;;;4008772;29;20183;-90
2023/08/03 03:54:13;;;;;;;16.25;2.67;;;17.50;99.90;;;;;;3993622;29;20192;-92
2023/08/03 03:56:14;;;;;;;17.95;2.83;;;17.60;99.90;;;;;;4008549;29;20191;-91
2023/08/03 03:58:15;;;;;;;12.13;2.15;;;17.50;99.90;;;;;;3993720;29;20661;-95
2023/08/03 04:00:16;;;;;;;13.32;2.42;;;17.40;99.90;;;;;;3993454;29;20227;-91
2023/08/03 04:02:16;;;;;;;19.38;2.72;;;17.40;99.90;;;;;;4008901;29;20243;-89
2023/08/03 04:04:18;;;;;;;15.68;2.25;;;17.40;99.90;;;;;;3993779;29;20180;-90
2023/08/03 04:06:19;;;;;;;14.70;2.28;;;17.50;99.90;;;;;;4023916;29;20198;-91
2023/08/03 04:08:20;;;;;;;18.75;3.15;;;17.50;99.90;;;;;;4008699;29;20703;-90
2023/08/03 04:10:21;;;;;;;20.08;2.78;;;17.40;99.90;;;;;;4008258;29;20246;-91
2023/08/03 04:12:22;;;;;;;22.75;3.47;;;17.60;99.90;;;;;;4008354;29;20250;-91
2023/08/03 04:14:23;;;;;;;14.75;2.45;;;17.60;99.90;;;;;;3993594;29;20198;-90
2023/08/03 04:16:23;;;;;;;21.42;3.28;;;17.70;99.90;;;;;;4008482;29;20251;-95
2023/08/03 04:18:24;;;;;;;18.80;2.97;;;17.60;99.90;;;;;;3992982;29;20196;-91
2023/08/03 04:20:25;;;;;;;18.33;2.67;;;17.60;99.90;;;;;;3993098;29;20200;-91
2023/08/03 04:22:26;;;;;;;18.65;2.80;;;17.50;99.90;;;;;;3993268;29;20236;-92
2023/08/03 04:24:28;;;;;;;23.20;3.28;;;17.50;99.90;;;;;;3993130;29;20176;-95
2023/08/03 04:26:29;;;;;;;20.73;2.90;;;17.50;99.90;;;;;;3993118;29;20195;-95
2023/08/03 04:28:31;;;;;;;19.17;2.90;;;17.60;99.90;;;;;;4008296;29;20198;-91
2023/08/03 04:30:32;;;;;;;26.27;4.22;;;17.50;99.90;;;;;;3992753;29;20260;-92
2023/08/03 04:32:33;;;;;;;19.13;3.33;;;17.70;99.90;;;;;;4008059;29;20740;-93
2023/08/03 04:34:34;;;;;;;21.98;3.22;;;17.50;99.90;;;;;;3992754;29;20192;-91
2023/08/03 04:36:40;;;;;;;28.80;3.58;;;17.40;99.90;;;;;;3993555;29;20188;-90
2023/08/03 04:38:41;;;;;;;16.02;3.25;;;17.50;99.90;;;;;;4023409;29;20186;-90
2023/08/03 04:40:42;;;;;;;20.95;3.72;;;17.50;99.90;;;;;;4008163;29;20207;-91
2023/08/03 04:42:43;;;;;;;21.92;3.42;;;17.50;99.90;;;;;;4008452;29;20191;-93
2023/08/03 04:44:44;;;;;;;16.90;3.20;;;17.60;99.90;;;;;;4023885;29;20197;-91
2023/08/03 04:46:45;;;;;;;21.55;3.47;;;17.70;99.90;;;;;;4008116;29;20653;-91
2023/08/03 04:48:46;;;;;;;23.05;4.18;;;17.60;99.90;;;;;;4008209;29;20194;-91
2023/08/03 04:50:48;;;;;;;20.17;3.33;;;17.50;99.90;;;;;;4007996;29;20183;-93
2023/08/03 04:52:50;;;;;;;26.38;4.95;;;17.70;99.90;;;;;;3993078;29;20188;-92
2023/08/03 04:54:54;;;;;;;23.55;3.55;;;17.80;99.90;;;;;;4022870;29;20278;-92
2023/08/03 04:56:55;;;;;;;15.68;2.75;;;17.90;99.90;;;;;;3992722;29;20545;-93
2023/08/03 04:58:57;;;;;;;14.18;2.80;;;17.80;99.90;;;;;;4007684;29;20191;-93
2023/08/03 05:00:57;;;;;;;11.63;2.42;;;17.70;99.90;;;;;;4007766;29;20231;-92
2023/08/03 05:02:58;;;;;;;13.52;2.30;;;17.60;99.90;;;;;;4007776;29;20191;-94
2023/08/03 05:04:59;;;;;;;9.57;1.70;;;17.70;99.90;;;;;;3992744;29;20191;-93
2023/08/03 05:07:00;;;;;;;10.55;1.60;;;17.60;99.90;;;;;;3992858;29;20232;-93
2023/08/03 05:09:01;;;;;;;9.65;1.48;;;17.60;99.90;;;;;;3992496;29;20183;-93
2023/08/03 05:11:03;;;;;;;7.00;1.08;;;17.60;99.90;;;;;;3992783;29;20196;-94
2023/08/03 05:13:08;;;;;;;6.72;1.17;;;17.50;99.90;;;;;;4007746;29;20182;-93
2023/08/03 05:15:09;;;;;;;9.05;1.35;;;17.60;99.90;;;;;;3992478;29;20575;-92
2023/08/03 05:17:11;;;;;;;8.52;1.30;;;17.60;99.90;;;;;;4007541;29;20187;-92
2023/08/03 05:19:11;;;;;;;7.32;1.00;;;17.60;99.90;;;;;;4007493;29;20756;-94
2023/08/03 05:21:12;;;;;;;8.90;0.90;;;17.60;99.90;;;;;;3992483;29;20247;-93
2023/08/03 05:23:13;;;;;;;7.30;0.90;;;17.40;99.90;;;;;;4006713;29;20214;-94
2023/08/03 05:25:14;;;;;;;6.20;1.00;;;17.40;99.90;;;;;;3992422;29;20192;-93
2023/08/03 05:27:15;;;;;;;3.47;0.80;;;17.20;99.90;;;;;;3992441;29;20223;-94
2023/08/03 05:29:16;;;;;;;4.05;0.80;;;17.30;99.90;;;;;;3992254;29;20211;-93
2023/08/03 05:31:17;;;;;;;3.15;0.77;;;17.20;99.90;;;;;;4022793;29;20198;-93
2023/08/03 05:33:17;;;;;;;7.10;0.88;;;17.20;99.90;;;;;;3992118;29;20276;-93
2023/08/03 05:35:18;;;;;;;4.50;0.85;;;17.40;99.90;;;;;;4007424;29;20201;-92
2023/08/03 05:37:19;;;;;;;5.32;1.00;;;17.70;99.90;;;;;;3992348;29;20183;-93
2023/08/03 05:39:20;;;;;;;5.07;1.63;;;17.60;99.90;;;;;;3992330;29;20266;-93
2023/08/03 05:41:23;;;;;;;5.82;0.82;;;17.80;99.90;;;;;;4007097;29;20175;-93
2023/08/03 05:43:26;;;;;;;9.23;1.13;;;17.80;99.90;;;;;;4007128;29;20198;-94
2023/08/03 05:45:34;;;;;;;8.00;1.10;;;17.70;99.90;;;;;;3992142;29;20249;-93
2023/08/03 05:47:37;;;;;;;4.50;1.00;;;17.90;99.90;;;;;;4022244;29;20225;-93
2023/08/03 05:49:38;;;;;;;4.65;1.40;;;18.10;99.90;;;;;;4006790;29;20198;-93
2023/08/03 05:51:41;;;;;;;12.75;1.50;;;18.00;99.90;;;;;;3992169;29;20634;-92
2023/08/03 05:53:42;;;;;;;8.05;1.10;;;18.10;99.90;;;;;;4007055;29;20255;-93
2023/08/03 05:55:44;;;;;;;5.72;1.13;;;17.90;99.90;;;;;;3992120;29;20191;-92
2023/08/03 05:57:45;;;;;;;4.35;1.02;;;17.90;99.90;;;;;;3992136;29;20332;-93
2023/08/03 05:59:46;;;;;;;6.13;1.20;;;17.90;99.90;;;;;;4007050;29;20210;-92
2023/08/03 06:01:51;;;;;;;6.30;1.10;;;17.70;99.90;;;;;;4006931;29;20235;-93
2023/08/03 06:03:53;;;;;;;8.35;1.25;;;17.80;99.90;;;;;;3992108;29;20192;-91
2023/08/03 06:05:55;;;;;;;3.92;1.13;;;17.80;99.90;;;;;;4007222;29;20281;-95
2023/08/03 06:07:55;;;;;;;8.27;1.27;;;17.70;99.90;;;;;;4007066;29;20234;-93
2023/08/03 06:09:56;;;;;;;5.90;1.42;;;18.10;99.90;;;;;;4006921;29;20802;-95
2023/08/03 06:11:57;;;;;;;8.95;1.40;;;17.90;99.90;;;;;;4007061;29;20653;-93
2023/08/03 06:13:58;;;;;;;8.48;1.42;;;17.80;99.90;;;;;;4007216;29;20190;-93
2023/08/03 06:16:11;;;;;;;5.97;1.25;;;17.90;99.90;;;;;;3991914;29;20195;-93
2023/08/03 06:18:17;;;;;;;7.93;1.27;;;18.10;99.90;;;;;;3976770;29;20208;-93
2023/08/03 06:20:22;;;;;;;5.75;1.20;;;18.10;99.90;;;;;;3991804;29;20210;-92
2023/08/03 06:22:22;;;;;;;8.18;1.27;;;18.20;99.90;;;;;;3976927;29;20666;-94
2023/08/03 06:24:23;;;;;;;6.68;1.20;;;18.30;99.90;;;;;;3976561;29;20231;-92
2023/08/03 06:26:25;;;;;;;9.75;1.40;;;18.30;99.90;;;;;;3991612;29;20214;-94
2023/08/03 06:28:26;;;;;;;7.20;1.23;;;18.20;99.90;;;;;;4021902;29;20221;-91
2023/08/03 06:30:27;;;;;;;10.93;1.35;;;18.20;99.90;;;;;;4006571;29;20213;-94
2023/08/03 06:32:31;;;;;;;5.63;1.20;;;18.30;99.90;;;;;;3991746;29;20192;-94
2023/08/03 06:34:33;;;;;;;8.70;1.40;;;18.00;99.90;;;;;;4008368;29;20712;-94
2023/08/03 06:36:35;;;;;;;5.57;1.48;;;18.20;99.90;;;;;;4025255;29;20217;-94
2023/08/03 06:38:37;;;;;;;4.10;1.20;;;17.80;99.90;;;;;;4009889;29;20183;-92
2023/08/03 06:40:40;;;;;;;12.23;1.60;;;17.90;99.90;;;;;;3994545;29;20215;-92
2023/08/03 06:42:41;;;;;;;9.43;1.88;;;17.70;99.90;;;;;;4025163;29;20182;-92
2023/08/03 06:44:42;;;;;;;7.90;1.58;;;17.80;99.90;;;;;;4009755;29;20206;-94
2023/08/03 06:46:42;;;;;;;6.70;1.58;;;17.80;99.90;;;;;;4009612;29;20183;-92
2023/08/03 06:48:43;;;;;;;12.93;1.98;;;17.80;99.90;;;;;;4009560;29;20674;-93
2023/08/03 06:50:44;;;;;;;9.73;1.65;;;18.00;99.90;;;;;;3994436;29;20187;-93
2023/08/03 06:52:45;;;;;;;8.95;1.70;;;18.20;99.90;;;;;;4009692;29;20183;-93
2023/08/03 06:54:46;;;;;;;6.38;1.50;;;18.40;99.90;;;;;;3994221;29;20214;-92
2023/08/03 06:56:46;;;;;;;12.88;2.17;;;18.60;99.90;;;;;;4009679;29;20195;-94
2023/08/03 06:58:47;;;;;;;11.55;1.70;;;18.70;99.90;;;;;;4009392;29;20564;-93
2023/08/03 07:00:48;;;;;;;11.55;1.83;;;18.80;99.90;;;;;;4009342;29;20190;-95
2023/08/03 07:02:50;;;;;;;7.95;1.70;;;18.70;99.90;;;;;;3995814;29;20317;-92
2023/08/03 07:04:51;;;;;;;9.20;1.90;;;18.70;99.90;;;;;;3994262;29;20195;-93
2023/08/03 07:06:52;;;;;;;10.25;2.00;;;18.70;99.90;;;;;;3994187;29;20210;-93
2023/08/03 07:08:52;;;;;;;7.82;2.08;;;18.70;99.90;;;;;;3994228;29;20199;-93
2023/08/03 07:10:53;;;;;;;5.97;1.58;;;18.80;99.90;;;;;;3994114;29;20232;-93
2023/08/03 07:12:54;;;;;;;8.93;1.75;;;18.90;99.90;;;;;;3994040;29;20246;-93
2023/08/03 07:14:55;;;;;;;8.98;2.00;;;19.00;99.90;;;;;;3993975;29;20640;-95
2023/08/03 07:16:56;;;;;;;8.55;1.83;;;19.20;99.90;;;;;;3994032;29;20577;-92
2023/08/03 07:18:57;;;;;;;12.15;1.95;;;19.20;99.90;;;;;;3994252;29;20214;-93
2023/08/03 07:21:03;;;;;;;10.48;2.17;;;19.10;99.90;;;;;;3994168;29;20671;-93
2023/08/03 07:23:05;;;;;;;10.10;2.25;;;19.00;99.90;;;;;;4024652;29;20197;-94
2023/08/03 07:25:07;;;;;;;11.43;1.85;;;19.30;99.90;;;;;;4024123;29;20620;-93
2023/08/03 07:27:07;;;;;;;9.00;1.80;;;19.30;99.90;;;;;;4024310;29;20214;-94
2023/08/03 07:29:08;;;;;;;9.90;2.53;;;19.30;99.90;;;;;;4009196;29;20792;-93
2023/08/03 07:31:14;;;;;;;12.82;2.17;;;19.20;99.90;;;;;;3993986;29;20188;-91
2023/08/03 07:33:15;;;;;;;10.88;2.47;;;19.10;99.90;;;;;;4009287;29;20191;-93
2023/08/03 07:35:16;;;;;;;14.77;2.55;;;19.10;99.90;;;;;;3993860;29;20180;-91
2023/08/03 07:37:16;;;;;;;12.55;2.97;;;19.20;99.90;;;;;;4009237;29;20186;-93
2023/08/03 07:39:17;;;;;;;12.77;3.08;;;19.20;99.90;;;;;;4008929;29;20251;-92
2023/08/03 07:41:18;;;;;;;11.30;3.70;;;19.20;99.90;;;;;;4008874;29;20194;-94
2023/08/03 07:43:19;;;;;;;13.43;3.03;;;19.20;99.90;;;;;;3993724;29;20175;-94
2023/08/03 07:45:20;;;;;;;10.68;3.42;;;18.90;99.90;;;;;;4008199;29;20187;-92
2023/08/03 07:47:21;;;;;;;13.60;3.53;;;18.90;99.90;;;;;;3993225;29;20220;-93
2023/08/03 07:49:22;;;;;;;11.57;3.40;;;19.00;99.90;;;;;;4009151;29;20206;-94
2023/08/03 07:51:23;;;;;;;18.00;4.22;;;18.90;99.90;;;;;;4008840;29;20187;-91
2023/08/03 07:53:24;;;;;;;16.05;3.85;;;19.40;99.90;;;;;;3993719;29;20183;-92
2023/08/03 07:55:24;;;;;;;20.48;4.43;;;19.40;99.90;;;;;;4008590;29;20183;-93
2023/08/03 07:57:25;;;;;;;10.77;4.30;;;19.40;99.90;;;;;;3993694;29;20192;-94
2023/08/03 07:59:26;;;;;;;13.10;4.78;;;19.60;99.90;;;;;;3993470;29;20207;-95
2023/08/03 08:01:27;;;;;;;11.68;3.60;;;19.80;99.90;;;;;;4008689;29;20597;-93
2023/08/03 08:03:28;;;;;;;14.55;3.90;;;20.10;99.90;;;;;;4008731;29;20191;-93
2023/08/03 08:05:29;;;;;;;94.82;10.73;;;20.20;99.90;;;;;;4008632;29;20187;-92
2023/08/03 08:07:29;;;;;;;11.43;2.88;;;20.40;99.90;;;;;;3993392;29;20708;-92
2023/08/03 08:09:30;;;;;;;7.57;2.25;;;21.00;99.90;;;;;;4008446;29;20773;-94
2023/08/03 08:11:31;;;;;;;18.42;3.00;;;21.30;99.90;;;;;;4008392;29;20286;-93
2023/08/03 08:13:32;;;;;;;14.95;2.67;;;21.80;99.90;;;;;;4008373;29;20549;-95
2023/08/03 08:15:34;;;;;;;22.38;3.10;;;22.20;99.90;;;;;;3993275;29;20195;-94
2023/08/03 08:17:35;;;;;;;10.60;2.35;;;22.30;99.90;;;;;;4008494;29;20194;-93
2023/08/03 08:19:36;;;;;;;13.35;2.28;;;22.10;99.90;;;;;;4008313;29;20199;-92
2023/08/03 08:21:37;;;;;;;13.20;2.45;;;22.40;99.90;;;;;;3993305;29;20187;-94
2023/08/03 08:23:39;;;;;;;10.73;2.13;;;22.20;99.90;;;;;;4008369;29;20637;-92
2023/08/03 08:25:39;;;;;;;16.13;3.05;;;22.20;99.90;;;;;;4008434;29;20210;-93
2023/08/03 08:27:40;;;;;;;52.72;5.72;;;22.00;99.90;;;;;;4008480;29;20227;-94
2023/08/03 08:29:41;;;;;;;28.45;3.40;;;21.70;99.90;;;;;;3992974;29;20306;-94
2023/08/03 08:31:42;;;;;;;14.23;2.97;;;21.50;99.90;;;;;;3992984;29;20642;-93
2023/08/03 08:33:42;;;;;;;18.75;2.65;;;21.40;99.90;;;;;;4008237;29;20190;-94
2023/08/03 08:35:47;;;;;;;11.88;2.53;;;21.30;99.90;;;;;;4008110;29;20194;-93
2023/08/03 08:37:49;;;;;;;15.07;2.47;;;21.20;99.90;;;;;;4023436;29;20239;-94
2023/08/03 08:39:50;;;;;;;20.35;2.95;;;21.00;99.90;;;;;;3992996;29;20241;-93
2023/08/03 08:41:51;;;;;;;15.95;2.90;;;21.30;99.90;;;;;;4008400;29;20183;-93
2023/08/03 08:43:52;;;;;;;11.85;2.17;;;21.40;99.90;;;;;;3992953;29;20179;-92
2023/08/03 08:45:53;;;;;;;14.25;1.90;;;21.30;99.90;;;;;;4007846;29;20231;-93
2023/08/03 08:47:54;;;;;;;13.73;2.42;;;21.00;99.90;;;;;;3993019;29;20272;-93
2023/08/03 08:49:54;;;;;;;13.10;2.40;;;21.00;99.90;;;;;;4007775;29;20333;-94
2023/08/03 08:51:58;;;;;;;11.70;2.05;;;21.20;99.90;;;;;;3992670;29;20779;-92
2023/08/03 08:53:59;;;;;;;16.98;2.47;;;21.50;99.90;;;;;;4023075;29;20198;-92
2023/08/03 08:56:00;;;;;;;13.45;2.38;;;21.60;99.90;;;;;;3992930;29;20338;-90
2023/08/03 08:58:01;;;;;;;13.25;2.20;;;21.40;99.90;;;;;;4007595;29;20191;-94
2023/08/03 09:00:05;;;;;;;19.15;2.55;;;21.50;99.90;;;;;;4007548;29;20267;-95
2023/08/03 09:02:06;;;;;;;16.15;2.47;;;21.90;99.90;;;;;;3992694;29;20195;-92
2023/08/03 09:04:06;;;;;;;14.57;2.15;;;22.00;99.90;;;;;;3992598;29;20677;-94
2023/08/03 09:06:08;;;;;;;13.52;2.13;;;22.10;99.90;;;;;;4007686;29;20187;-91
2023/08/03 09:08:14;;;;;;;12.20;1.95;;;22.20;99.90;;;;;;3992861;29;20227;-94
2023/08/03 09:10:15;;;;;;;9.43;2.30;;;22.30;99.90;;;;;;3992378;29;20207;-94
2023/08/03 09:12:25;;;;;;;10.65;2.00;;;22.00;99.90;;;;;;3992873;29;20240;-95
2023/08/03 09:14:26;;;;;;;11.52;1.95;;;21.90;99.90;;;;;;4023315;29;20208;-94
2023/08/03 09:16:29;;;;;;;12.32;2.40;;;21.80;99.90;;;;;;3992726;29;20234;-95
2023/08/03 09:18:31;;;;;;;15.05;2.70;;;22.00;99.90;;;;;;4007651;29;20194;-91
2023/08/03 09:20:33;;;;;;;12.98;2.15;;;21.90;99.90;;;;;;4007379;29;20215;-92
2023/08/03 09:22:43;;;;;;;11.95;2.30;;;21.70;99.90;;;;;;3992452;29;20196;-94
2023/08/03 09:24:46;;;;;;;14.32;2.30;;;21.60;99.90;;;;;;4023306;29;20288;-92
2023/08/03 09:26:47;;;;;;;14.75;2.17;;;21.60;99.90;;;;;;4007390;29;20191;-94
2023/08/03 09:28:48;;;;;;;17.63;2.28;;;21.60;99.90;;;;;;4007433;29;20201;-91
2023/08/03 09:30:50;;;;;;;12.85;1.85;;;21.40;99.90;;;;;;3992153;29;20187;-90
2023/08/03 09:32:51;;;;;;;11.90;2.10;;;21.30;99.90;;;;;;3992343;29;20263;-92
2023/08/03 09:34:52;;;;;;;16.85;2.20;;;21.30;99.90;;;;;;4007235;29;20223;-93
2023/08/03 09:36:53;;;;;;;17.45;2.47;;;21.50;99.90;;;;;;4007257;29;20696;-92
2023/08/03 09:39:13;;;;;;;14.55;2.63;;;21.30;99.90;;;;;;4007576;29;20214;-93
2023/08/03 09:41:14;;;;;;;11.02;1.90;;;21.60;99.90;;;;;;3992190;29;20278;-93
2023/08/03 09:43:17;;;;;;;11.57;1.80;;;21.60;99.90;;;;;;3992308;29;20195;-94
2023/08/03 09:45:18;;;;;;;12.55;2.40;;;21.40;99.90;;;;;;3991823;29;20179;-94
2023/08/03 09:47:19;;;;;;;14.10;2.55;;;21.10;99.90;;;;;;3992438;29;20743;-91
2023/08/03 09:49:20;;;;;;;17.77;2.50;;;21.00;99.90;;;;;;3992165;29;20215;-93
2023/08/03 09:51:23;;;;;;;18.05;1.92;;;21.10;99.90;;;;;;4007343;29;20194;-93
2023/08/03 09:53:38;;;;;;;15.18;2.22;;;21.20;99.90;;;;;;3992156;29;20239;-94
2023/08/03 09:55:53;;;;;;;9.00;1.73;;;21.50;99.90;;;;;;3992189;29;20191;-91
2023/08/03 09:58:13;;;;;;;12.95;2.30;;;21.40;99.90;;;;;;3992172;29;20697;-94
2023/08/03 10:00:16;;;;;;;16.80;2.03;;;21.60;99.90;;;;;;4006742;29;20271;-92
2023/08/03 10:02:19;;;;;;;10.85;1.88;;;21.70;99.90;;;;;;4007116;29;20229;-91
2023/08/03 10:04:23;;;;;;;16.77;2.50;;;21.80;99.90;;;;;;4006993;29;20207;-91
2023/08/03 10:06:27;;;;;;;12.43;2.20;;;22.00;99.90;;;;;;4007001;29;20190;-92
2023/08/03 10:08:52;;;;;;;12.65;2.05;;;22.20;99.90;;;;;;4021786;29;20244;-93
2023/08/03 10:10:59;;;;;;;8.65;1.80;;;22.20;99.90;;;;;;4007076;29;20182;-93
2023/08/03 10:13:04;;;;;;;14.52;2.50;;;21.80;99.90;;;;;;3991967;29;20691;-94
2023/08/03 10:15:08;;;;;;;13.82;2.20;;;21.90;99.90;;;;;;3991956;29;20225;-90
2023/08/03 10:17:11;;;;;;;13.13;2.47;;;22.00;99.90;;;;;;3992262;29;20597;-92
2023/08/03 10:19:13;;;;;;;13.35;2.65;;;21.80;99.90;;;;;;4006777;29;20215;-94
2023/08/03 10:21:14;;;;;;;16.27;2.50;;;21.70;99.90;;;;;;4006745;29;20191;-91
2023/08/03 10:23:18;;;;;;;15.65;2.28;;;21.40;99.90;;;;;;4006829;29;20195;-93
2023/08/03 10:25:19;;;;;;;11.63;1.80;;;21.20;99.90;;;;;;3991653;29;20597;-91
2023/08/03 10:27:21;;;;;;;11.70;2.03;;;21.10;99.90;;;;;;4006965;29;20802;-91